Terminal Aerodrome Forecast
Issued by NWS

Home | Current Version | Previous Version | Text Only | Print | Product List | Glossary On
Versions: 1 2 3 4 5 6 7 8 9 10 11 12 13 14 15
000
FTUS46 KHNX 220809 AAA
TAFBFL
TAF AMD
KBFL 220809Z 2208/2306 VRB03KT P6SM BKN012 OVC040
     FM221000 VRB03KT 4SM BR OVC012
     FM221300 VRB03KT 1SM BR OVC005
     FM221800 VRB03KT 4SM BR SCT005 BKN015
     FM230400 VRB03KT 2SM BR OVC020=

USA.gov is the U.S. government's official web portal to all federal, state and local government web resources and services.